Time;durP1;ratioP1;P1;durP2;ratioP2;P2;SDS_P1;SDS_P2;PMS_P1;PMS_P2;Temp;Humidity;BMP_temperature;BMP_pressure;BME280_temperature;BME280_humidity;BME280_pressure;Samples;Min_cycle;Max_cycle;Signal;HPM_P1;HPM_P2
2022/04/22 00:01:11;;;;;;;3.37;3.07;;;7.10;99.90;;;;;;5097546;28;20785;-67
2022/04/22 00:03:37;;;;;;;4.23;3.70;;;7.10;99.90;;;;;;5093514;28;20201;-67
2022/04/22 00:06:03;;;;;;;3.87;3.43;;;7.00;99.90;;;;;;5095520;28;20243;-69
2022/04/22 00:08:29;;;;;;;4.73;2.67;;;7.10;99.90;;;;;;5090314;28;20480;-72
2022/04/22 00:13:39;;;;;;;3.33;3.13;;;7.00;99.90;;;;;;5090239;28;20814;-68
2022/04/22 00:16:06;;;;;;;6.20;3.10;;;7.10;99.90;;;;;;5098307;28;20438;-69
2022/04/22 00:18:32;;;;;;;7.63;3.60;;;7.10;99.90;;;;;;5088712;27;20194;-72
2022/04/22 00:20:58;;;;;;;3.83;2.97;;;7.20;99.90;;;;;;5090100;28;20455;-68
2022/04/22 00:23:25;;;;;;;3.17;2.87;;;7.10;99.90;;;;;;5089999;28;20571;-67
2022/04/22 00:25:51;;;;;;;3.47;2.97;;;7.20;99.90;;;;;;5090688;28;20602;-69
2022/04/22 00:28:16;;;;;;;3.90;3.30;;;7.20;99.90;;;;;;5092660;28;20446;-67
2022/04/22 00:30:42;;;;;;;2.93;2.73;;;7.20;99.90;;;;;;5096167;28;20170;-64
2022/04/22 00:33:07;;;;;;;3.97;3.13;;;7.10;99.90;;;;;;5112398;28;20217;-65
2022/04/22 00:35:33;;;;;;;2.50;2.30;;;7.20;99.90;;;;;;5104459;28;20184;-70
2022/04/22 00:37:59;;;;;;;4.50;2.70;;;7.20;99.90;;;;;;5089429;28;20253;-70
2022/04/22 00:40:25;;;;;;;4.60;3.10;;;7.20;99.90;;;;;;5091163;28;20191;-68
2022/04/22 00:42:50;;;;;;;2.93;2.70;;;7.20;99.90;;;;;;5092696;28;20382;-68
2022/04/22 00:45:19;;;;;;;2.83;2.27;;;7.10;99.90;;;;;;5102419;28;20457;-71
2022/04/22 00:47:45;;;;;;;4.60;3.23;;;7.10;99.90;;;;;;5092943;28;20620;-67
2022/04/22 00:50:11;;;;;;;3.00;2.70;;;7.00;99.90;;;;;;5109367;28;22282;-65
2022/04/22 00:52:37;;;;;;;7.00;3.00;;;7.00;99.90;;;;;;5110385;27;20852;-67
2022/04/22 00:55:07;;;;;;;5.77;3.00;;;7.00;99.90;;;;;;5104194;28;20397;-65
2022/04/22 00:57:33;;;;;;;6.30;2.87;;;7.00;99.90;;;;;;5093606;28;20886;-65
2022/04/22 00:59:59;;;;;;;4.67;2.63;;;7.00;99.90;;;;;;5091438;28;20439;-68
2022/04/22 01:02:24;;;;;;;4.50;3.03;;;6.90;99.90;;;;;;5097120;28;20870;-69
2022/04/22 01:10:19;;;;;;;5.80;3.23;;;6.80;99.90;;;;;;5095308;28;20447;-65
2022/04/22 01:12:45;;;;;;;3.90;2.97;;;6.70;99.90;;;;;;5093016;28;20467;-68
2022/04/22 01:15:11;;;;;;;3.23;2.93;;;6.70;99.90;;;;;;5092906;28;20446;-69
2022/04/22 01:17:37;;;;;;;3.93;2.57;;;6.70;99.90;;;;;;5093500;28;20478;-64
2022/04/22 01:20:04;;;;;;;2.60;2.50;;;6.60;99.90;;;;;;5095277;28;20174;-64
2022/04/22 01:22:30;;;;;;;3.60;3.30;;;6.60;99.90;;;;;;5092603;28;20703;-69
2022/04/22 01:25:01;;;;;;;2.77;2.60;;;6.50;99.90;;;;;;5092838;28;20413;-64
2022/04/22 01:27:29;;;;;;;3.27;2.97;;;6.40;99.90;;;;;;5107126;28;20174;-65
2022/04/22 01:29:56;;;;;;;3.00;2.80;;;6.40;99.90;;;;;;5092335;28;20395;-65
2022/04/22 01:32:23;;;;;;;3.43;2.60;;;6.30;99.90;;;;;;5096211;28;20964;-65
2022/04/22 01:34:48;;;;;;;3.80;2.93;;;6.20;99.90;;;;;;5096790;28;20500;-68
2022/04/22 01:37:14;;;;;;;5.03;2.53;;;6.20;99.90;;;;;;5097252;28;20485;-65
2022/04/22 01:39:39;;;;;;;3.33;3.13;;;6.10;99.90;;;;;;5091050;28;20235;-67
2022/04/22 01:42:06;;;;;;;3.60;3.40;;;5.90;99.90;;;;;;5092549;28;20667;-66
2022/04/22 01:44:35;;;;;;;3.57;3.27;;;5.80;99.90;;;;;;5093387;28;20206;-65
2022/04/22 01:47:02;;;;;;;7.83;3.40;;;5.70;99.90;;;;;;5097305;28;20459;-68
2022/04/22 01:49:27;;;;;;;8.63;3.60;;;5.70;99.90;;;;;;5102193;28;20514;-67
2022/04/22 01:51:54;;;;;;;3.00;2.80;;;5.70;99.90;;;;;;5094229;28;20531;-65
2022/04/22 01:54:20;;;;;;;3.73;3.43;;;5.70;99.90;;;;;;5094621;28;20234;-67
2022/04/22 01:56:46;;;;;;;3.90;3.00;;;5.80;99.90;;;;;;5100440;28;20850;-66
2022/04/22 01:59:12;;;;;;;3.53;3.23;;;5.80;99.90;;;;;;5095851;28;20205;-64
2022/04/22 02:01:38;;;;;;;3.40;3.20;;;5.80;99.90;;;;;;5099582;28;20443;-64
2022/04/22 02:04:03;;;;;;;3.67;3.37;;;5.60;99.90;;;;;;5101732;28;20203;-68
2022/04/22 02:06:29;;;;;;;3.63;3.23;;;5.50;99.90;;;;;;5096467;28;20508;-68
2022/04/22 02:08:55;;;;;;;2.90;2.70;;;5.30;99.90;;;;;;5096993;28;20189;-65
2022/04/22 02:11:21;;;;;;;3.73;3.20;;;5.20;99.90;;;;;;5110298;28;20181;-69
2022/04/22 02:13:47;;;;;;;4.53;2.90;;;5.10;99.90;;;;;;5096485;28;20929;-65
2022/04/22 02:16:13;;;;;;;3.63;2.70;;;5.10;99.90;;;;;;5096531;28;20257;-64
2022/04/22 02:18:41;;;;;;;2.83;2.67;;;5.10;99.90;;;;;;5095474;28;20459;-64
2022/04/22 02:21:07;;;;;;;3.90;3.60;;;5.00;99.90;;;;;;5095962;28;20265;-65
2022/04/22 02:23:34;;;;;;;4.87;3.63;;;5.00;99.90;;;;;;5097992;28;20439;-65
2022/04/22 02:26:00;;;;;;;7.57;4.03;;;4.90;99.90;;;;;;5095652;28;20886;-65
2022/04/22 02:28:32;;;;;;;3.77;3.47;;;4.90;1.00;;;;;;5096139;28;20493;-69
2022/04/22 02:31:09;;;;;;;5.07;3.47;;;4.90;1.00;;;;;;5099573;28;20433;-64
2022/04/22 02:33:37;;;;;;;3.63;3.33;;;4.90;1.00;;;;;;5095863;28;20536;-64
2022/04/22 02:36:04;;;;;;;3.13;2.93;;;4.80;1.00;;;;;;5102058;28;20482;-65
2022/04/22 02:38:30;;;;;;;5.83;3.50;;;4.90;1.00;;;;;;5107267;28;20657;-73
2022/04/22 02:46:27;;;;;;;7.70;4.03;;;5.10;1.00;;;;;;5097498;28;20437;-67
2022/04/22 02:48:59;;;;;;;3.40;3.20;;;5.20;1.00;;;;;;5096608;28;20489;-65
2022/04/22 02:51:25;;;;;;;6.30;3.80;;;5.20;1.00;;;;;;5095431;28;20422;-67
2022/04/22 02:53:52;;;;;;;3.43;3.20;;;5.30;1.00;;;;;;5095715;28;20457;-68
2022/04/22 02:56:19;;;;;;;2.90;2.70;;;5.30;1.00;;;;;;5095738;28;20525;-68
2022/04/22 02:58:45;;;;;;;3.70;3.40;;;5.30;1.00;;;;;;5094641;28;20821;-64
2022/04/22 03:01:11;;;;;;;2.67;2.47;;;5.40;1.00;;;;;;5096484;28;20515;-67
2022/04/22 03:03:36;;;;;;;3.97;2.87;;;5.40;1.00;;;;;;5108581;28;20595;-65
2022/04/22 03:06:03;;;;;;;4.13;3.47;;;5.20;1.00;;;;;;5097605;28;20647;-66
2022/04/22 03:08:29;;;;;;;2.97;2.73;;;5.20;1.00;;;;;;5095632;28;20174;-71
2022/04/22 03:10:55;;;;;;;4.00;3.60;;;5.20;1.00;;;;;;5111499;28;20451;-65
2022/04/22 03:13:21;;;;;;;4.90;3.00;;;5.20;1.00;;;;;;5115068;28;20458;-71
2022/04/22 03:15:47;;;;;;;3.60;3.30;;;5.10;1.00;;;;;;5095458;28;20466;-66
2022/04/22 03:18:13;;;;;;;3.30;3.10;;;5.00;1.00;;;;;;5095251;28;20230;-64
2022/04/22 03:20:38;;;;;;;4.63;3.17;;;5.00;1.00;;;;;;5094163;28;20970;-64
2022/04/22 03:23:04;;;;;;;3.40;3.20;;;5.10;1.00;;;;;;5095248;28;20447;-67
2022/04/22 03:25:30;;;;;;;3.30;2.80;;;5.30;1.00;;;;;;5094592;28;20197;-69
2022/04/22 03:27:55;;;;;;;4.23;3.80;;;5.40;1.00;;;;;;5094626;28;20506;-65
2022/04/22 03:30:21;;;;;;;9.63;6.23;;;5.60;1.00;;;;;;5094826;28;20216;-65
2022/04/22 03:32:47;;;;;;;4.80;4.23;;;5.70;1.00;;;;;;5114311;28;20280;-67
2022/04/22 03:35:13;;;;;;;3.77;3.47;;;5.80;1.00;;;;;;5098483;28;20173;-64
2022/04/22 03:37:38;;;;;;;3.67;3.43;;;5.90;1.00;;;;;;5095053;28;20428;-66
2022/04/22 03:40:05;;;;;;;4.60;3.33;;;5.90;1.00;;;;;;5093619;28;20197;-64
2022/04/22 03:42:32;;;;;;;8.17;3.67;;;6.00;1.00;;;;;;5094929;28;20197;-64
2022/04/22 03:44:57;;;;;;;6.20;3.47;;;6.10;1.00;;;;;;5094617;28;20449;-68
2022/04/22 03:47:23;;;;;;;3.73;3.43;;;6.10;1.00;;;;;;5094677;28;20447;-65
2022/04/22 03:49:49;;;;;;;4.00;3.70;;;6.20;1.00;;;;;;5093970;28;20182;-67
2022/04/22 03:52:15;;;;;;;3.87;3.37;;;6.20;1.00;;;;;;5095553;28;20190;-67
2022/04/22 03:54:41;;;;;;;4.03;3.63;;;6.30;1.00;;;;;;5106821;28;20790;-65
2022/04/22 03:59:51;;;;;;;6.13;3.47;;;6.30;1.00;;;;;;5094375;28;21030;-67
2022/04/22 04:02:16;;;;;;;3.60;3.40;;;6.30;1.00;;;;;;5095950;28;20452;-65
2022/04/22 04:04:42;;;;;;;5.13;3.30;;;6.40;1.00;;;;;;5094022;28;20228;-68
2022/04/22 04:07:08;;;;;;;3.57;3.27;;;6.40;1.00;;;;;;5094375;28;20181;-68
2022/04/22 04:17:46;;;;;;;3.60;3.30;;;6.50;1.00;;;;;;5093474;28;20438;-65
2022/04/22 04:25:40;;;;;;;4.27;3.87;;;6.50;1.00;;;;;;5107924;28;20471;-64
2022/04/22 04:28:09;;;;;;;5.13;3.30;;;6.50;1.00;;;;;;5101702;28;20435;-69
2022/04/22 04:30:39;;;;;;;3.50;3.20;;;6.60;1.00;;;;;;5095010;28;20428;-64
2022/04/22 04:33:06;;;;;;;3.50;3.20;;;6.60;1.00;;;;;;5094703;28;20447;-67
2022/04/22 04:35:32;;;;;;;3.00;2.77;;;6.60;1.00;;;;;;5093195;28;20506;-65
2022/04/22 04:37:57;;;;;;;3.80;3.47;;;6.70;1.00;;;;;;5097534;28;20580;-67
2022/04/22 04:40:23;;;;;;;4.50;4.20;;;6.70;1.00;;;;;;5092096;28;20506;-67
2022/04/22 04:42:52;;;;;;;4.30;2.97;;;6.70;1.00;;;;;;5093352;28;20204;-67
2022/04/22 04:45:18;;;;;;;3.53;3.23;;;6.80;1.00;;;;;;5105129;28;20606;-67
2022/04/22 04:47:43;;;;;;;3.60;3.30;;;6.80;1.00;;;;;;5093449;28;20526;-67
2022/04/22 04:50:10;;;;;;;3.47;3.17;;;6.80;1.00;;;;;;5092483;28;20184;-69
2022/04/22 04:52:37;;;;;;;3.67;3.37;;;6.80;1.00;;;;;;5096633;28;20587;-64
2022/04/22 04:55:15;;;;;;;3.80;2.97;;;6.80;1.00;;;;;;5097620;28;20431;-70
2022/04/22 04:57:44;;;;;;;3.27;3.03;;;6.90;1.00;;;;;;5101930;28;20757;-70
2022/04/22 05:00:10;;;;;;;3.00;2.67;;;6.90;1.00;;;;;;5113187;28;20474;-69
2022/04/22 05:02:37;;;;;;;8.37;3.47;;;6.90;1.00;;;;;;5099304;28;20451;-64
2022/04/22 05:05:05;;;;;;;9.43;4.20;;;7.00;1.00;;;;;;5103022;28;20453;-66
2022/04/22 05:07:45;;;;;;;6.73;3.13;;;7.00;1.00;;;;;;5104792;28;20488;-64
2022/04/22 05:10:10;;;;;;;3.73;3.30;;;7.10;1.00;;;;;;5100835;28;20434;-64
2022/04/22 05:12:36;;;;;;;3.20;2.90;;;7.10;1.00;;;;;;5100928;28;20783;-67
2022/04/22 05:15:02;;;;;;;5.20;3.47;;;7.20;1.00;;;;;;5093443;28;20177;-69
2022/04/22 05:17:27;;;;;;;3.17;2.77;;;7.20;1.00;;;;;;5105954;28;20579;-67
2022/04/22 05:19:53;;;;;;;6.70;3.50;;;7.20;1.00;;;;;;5100277;28;20259;-64
2022/04/22 05:22:18;;;;;;;3.63;3.33;;;7.30;1.00;;;;;;5109420;28;20186;-65
2022/04/22 05:24:44;;;;;;;2.83;2.63;;;7.30;1.00;;;;;;5093279;28;20213;-66
2022/04/22 05:27:10;;;;;;;4.70;3.00;;;7.40;1.00;;;;;;5107470;28;20279;-71
2022/04/22 05:32:38;;;;;;;7.30;3.93;;;7.50;1.00;;;;;;5095997;28;20243;-69
2022/04/22 05:35:09;;;;;;;3.37;3.13;;;7.50;1.00;;;;;;5101715;28;20461;-70
2022/04/22 05:37:45;;;;;;;2.90;2.43;;;7.60;1.00;;;;;;5094583;28;20435;-69
2022/04/22 05:40:13;;;;;;;8.97;3.17;;;7.60;1.00;;;;;;5091792;28;20422;-66
2022/04/22 05:42:39;;;;;;;2.97;2.77;;;7.60;1.00;;;;;;5092256;28;20439;-66
2022/04/22 05:45:09;;;;;;;3.40;3.10;;;7.70;1.00;;;;;;5098255;28;20510;-69
2022/04/22 05:47:35;;;;;;;3.37;3.07;;;7.80;1.00;;;;;;5110296;28;20838;-70
2022/04/22 05:50:02;;;;;;;5.87;3.43;;;7.80;1.00;;;;;;5092038;28;20435;-64
2022/04/22 05:52:28;;;;;;;3.30;3.10;;;7.80;1.00;;;;;;5093384;28;20471;-64
2022/04/22 05:54:54;;;;;;;3.80;3.10;;;7.90;1.00;;;;;;5102732;28;20867;-67
2022/04/22 05:57:20;;;;;;;3.40;2.73;;;8.00;1.00;;;;;;5096800;28;20259;-68
2022/04/22 05:59:48;;;;;;;3.00;2.80;;;8.00;1.00;;;;;;5099866;28;20464;-64
2022/04/22 06:02:13;;;;;;;8.80;3.43;;;8.00;1.00;;;;;;5095616;28;20547;-64
2022/04/22 06:04:39;;;;;;;3.00;2.80;;;8.00;1.00;;;;;;5101660;28;20529;-64
2022/04/22 06:07:05;;;;;;;3.97;3.07;;;8.10;1.00;;;;;;5093537;28;20177;-67
2022/04/22 06:12:14;;;;;;;3.53;3.33;;;8.10;1.00;;;;;;5092218;28;20721;-67
2022/04/22 06:14:40;;;;;;;6.53;3.33;;;8.10;1.00;;;;;;5093590;28;20502;-64
2022/04/22 06:17:06;;;;;;;4.90;2.80;;;8.10;1.00;;;;;;5092372;28;20217;-66
2022/04/22 06:19:31;;;;;;;3.90;3.60;;;8.20;1.00;;;;;;5090217;28;20454;-68
2022/04/22 06:21:57;;;;;;;3.47;3.17;;;8.20;1.00;;;;;;5093378;28;20205;-68
2022/04/22 06:24:23;;;;;;;4.63;3.30;;;8.30;1.00;;;;;;5092507;28;20177;-66
2022/04/22 06:26:49;;;;;;;3.33;3.03;;;8.50;1.00;;;;;;5095960;28;20232;-64
2022/04/22 06:29:15;;;;;;;3.57;3.27;;;8.50;1.00;;;;;;5093803;28;20174;-65
2022/04/22 06:31:40;;;;;;;2.97;2.77;;;8.60;1.00;;;;;;5105751;28;20303;-66
2022/04/22 06:34:06;;;;;;;3.20;2.90;;;8.60;1.00;;;;;;5112924;28;20456;-64
2022/04/22 06:36:32;;;;;;;4.77;3.10;;;8.60;1.00;;;;;;5112960;28;20485;-65
2022/04/22 06:38:58;;;;;;;3.80;3.60;;;8.50;1.00;;;;;;5111877;28;20200;-67
2022/04/22 06:46:54;;;;;;;7.30;3.30;;;8.60;1.00;;;;;;5116937;28;20980;-64
2022/04/22 06:49:19;;;;;;;3.07;2.80;;;8.80;1.00;;;;;;5114292;28;20479;-69
2022/04/22 06:51:45;;;;;;;4.00;3.70;;;8.80;1.00;;;;;;5116334;28;20505;-70
2022/04/22 06:54:11;;;;;;;3.43;3.20;;;8.90;1.00;;;;;;5116516;28;20169;-68
2022/04/22 06:56:40;;;;;;;4.30;3.33;;;9.00;1.00;;;;;;5116370;28;20173;-68
2022/04/22 06:59:06;;;;;;;3.60;3.00;;;9.10;1.00;;;;;;5115342;28;20450;-68
2022/04/22 07:01:32;;;;;;;4.97;3.43;;;9.10;1.00;;;;;;5116215;28;20486;-69
2022/04/22 07:03:58;;;;;;;6.20;3.87;;;9.10;1.00;;;;;;5116154;28;20742;-65
2022/04/22 07:06:25;;;;;;;3.40;3.10;;;9.10;99.90;;;;;;5116045;28;20416;-69
2022/04/22 07:08:51;;;;;;;4.60;3.17;;;9.20;99.90;;;;;;5115197;27;21183;-64
2022/04/22 07:11:24;;;;;;;13.00;10.50;;;9.30;99.90;;;;;;5115829;28;20430;-68
2022/04/22 07:13:51;;;;;;;4.27;3.13;;;9.50;99.90;;;;;;5099362;28;20933;-69
2022/04/22 07:16:20;;;;;;;3.77;3.47;;;9.50;99.90;;;;;;5095433;28;20424;-64
2022/04/22 07:18:46;;;;;;;3.10;2.90;;;9.40;99.90;;;;;;5102230;28;20975;-69
2022/04/22 07:21:12;;;;;;;3.63;2.83;;;9.50;99.90;;;;;;5095394;28;20468;-67
2022/04/22 07:23:38;;;;;;;3.40;3.10;;;9.60;99.90;;;;;;5095281;28;20228;-65
2022/04/22 07:26:09;;;;;;;4.70;3.30;;;9.70;99.90;;;;;;5097113;28;20187;-64
2022/04/22 07:28:37;;;;;;;4.33;3.80;;;9.60;99.90;;;;;;5100474;28;20802;-70
2022/04/22 07:31:04;;;;;;;8.53;3.10;;;9.70;99.90;;;;;;5095213;28;20426;-70
2022/04/22 07:33:30;;;;;;;3.43;3.10;;;9.70;99.90;;;;;;5094497;28;20427;-67
2022/04/22 07:35:56;;;;;;;3.40;3.10;;;9.80;99.90;;;;;;5103420;28;20796;-69
2022/04/22 07:38:22;;;;;;;6.37;3.50;;;9.90;99.90;;;;;;5096455;28;20438;-65
2022/04/22 07:40:50;;;;;;;6.03;3.60;;;9.90;99.90;;;;;;5093942;28;20438;-64
2022/04/22 07:48:47;;;;;;;7.17;3.73;;;10.30;99.90;;;;;;5093686;28;20472;-64
2022/04/22 07:51:13;;;;;;;4.23;3.80;;;10.30;99.90;;;;;;5094056;28;20455;-69
2022/04/22 07:53:39;;;;;;;6.57;3.20;;;10.50;99.90;;;;;;5094081;28;20429;-65
2022/04/22 07:56:05;;;;;;;8.17;2.90;;;10.60;99.90;;;;;;5104567;28;20433;-65
2022/04/22 07:58:31;;;;;;;3.63;3.33;;;10.60;99.90;;;;;;5103308;28;20239;-72
2022/04/22 08:00:57;;;;;;;4.17;3.20;;;10.60;99.90;;;;;;5094351;28;20875;-68
2022/04/22 08:03:23;;;;;;;3.13;2.83;;;10.50;99.90;;;;;;5093197;28;21000;-70
2022/04/22 08:05:48;;;;;;;8.67;3.67;;;10.50;99.90;;;;;;5103189;28;20467;-65
2022/04/22 08:08:14;;;;;;;3.80;3.40;;;10.50;99.90;;;;;;5094483;28;20180;-68
2022/04/22 08:10:40;;;;;;;4.70;3.10;;;10.60;99.90;;;;;;5093471;28;20185;-65
2022/04/22 08:13:06;;;;;;;3.90;3.60;;;10.70;99.90;;;;;;5093244;28;20212;-71
2022/04/22 08:15:33;;;;;;;6.43;4.00;;;10.80;99.90;;;;;;5093283;28;20177;-68
2022/04/22 08:17:59;;;;;;;8.60;3.20;;;10.90;99.90;;;;;;5094582;28;20465;-70
2022/04/22 08:20:25;;;;;;;5.77;4.00;;;11.00;99.90;;;;;;5092659;28;20466;-69
2022/04/22 08:22:50;;;;;;;3.50;3.20;;;11.10;99.90;;;;;;5094060;28;20455;-69
2022/04/22 08:25:16;;;;;;;5.70;3.33;;;11.00;99.90;;;;;;5097966;28;20180;-65
2022/04/22 08:27:44;;;;;;;5.00;3.50;;;11.20;99.90;;;;;;5102951;28;20176;-65
2022/04/22 08:30:10;;;;;;;6.00;3.50;;;11.20;99.90;;;;;;5098750;28;20467;-69
2022/04/22 08:32:36;;;;;;;5.00;3.83;;;11.10;99.90;;;;;;5111149;27;20462;-69
2022/04/22 08:35:02;;;;;;;4.30;4.00;;;11.20;99.90;;;;;;5099483;28;20912;-67
2022/04/22 08:37:27;;;;;;;5.60;4.47;;;11.30;99.90;;;;;;5106050;28;20219;-68
2022/04/22 08:39:55;;;;;;;6.13;3.70;;;11.50;99.90;;;;;;5094782;28;20437;-67
2022/04/22 08:42:24;;;;;;;4.00;3.60;;;11.50;99.90;;;;;;5096946;28;20358;-66
2022/04/22 08:44:52;;;;;;;9.30;4.27;;;11.50;99.90;;;;;;5093196;28;20409;-70
2022/04/22 08:50:02;;;;;;;7.13;3.73;;;12.00;99.90;;;;;;5092744;28;20420;-70
2022/04/22 08:52:33;;;;;;;5.37;3.90;;;12.10;99.90;;;;;;5093201;28;20829;-68
2022/04/22 08:55:02;;;;;;;6.70;4.13;;;12.10;99.90;;;;;;5097038;28;20427;-65
2022/04/22 08:57:28;;;;;;;4.67;3.70;;;12.10;99.90;;;;;;5100649;28;20440;-70
2022/04/22 09:00:00;;;;;;;7.40;4.20;;;12.30;99.90;;;;;;5105063;28;20580;-67
2022/04/22 09:02:26;;;;;;;4.80;3.87;;;12.50;99.90;;;;;;5096711;28;20435;-68
2022/04/22 09:04:52;;;;;;;7.93;3.67;;;12.70;99.90;;;;;;5096750;28;20409;-70
2022/04/22 09:07:21;;;;;;;8.00;3.70;;;12.60;99.90;;;;;;5093301;28;20434;-63
2022/04/22 09:09:50;;;;;;;5.00;3.60;;;12.60;99.90;;;;;;5092384;28;20181;-66
2022/04/22 09:12:21;;;;;;;4.83;3.80;;;12.70;99.90;;;;;;5108576;28;20536;-62
2022/04/22 09:14:49;;;;;;;8.17;4.10;;;13.00;99.90;;;;;;5110338;28;20513;-68
2022/04/22 09:17:27;;;;;;;10.80;4.03;;;13.20;99.90;;;;;;5095235;28;20419;-65
2022/04/22 09:19:54;;;;;;;8.17;4.23;;;13.30;99.90;;;;;;5101197;28;20512;-68
2022/04/22 09:22:24;;;;;;;10.53;4.17;;;13.70;99.90;;;;;;5092623;28;20412;-68
2022/04/22 09:24:59;;;;;;;6.90;4.70;;;13.90;99.90;;;;;;5095698;28;20505;-67
2022/04/22 09:27:41;;;;;;;6.30;3.43;;;13.90;99.90;;;;;;5109621;28;20457;-68
2022/04/22 09:30:09;;;;;;;6.20;4.20;;;13.80;99.90;;;;;;5092446;28;20782;-68
2022/04/22 09:32:39;;;;;;;6.00;4.10;;;14.20;99.90;;;;;;5092327;28;20450;-63
2022/04/22 09:35:07;;;;;;;9.87;4.20;;;14.50;99.90;;;;;;5096733;28;20801;-65
2022/04/22 09:43:17;;;;;;;7.97;4.10;;;14.10;99.90;;;;;;5074687;28;20425;-66
2022/04/22 09:45:44;;;;;;;9.20;4.30;;;13.60;99.90;;;;;;5099208;28;20493;-66
2022/04/22 09:48:15;;;;;;;8.03;4.33;;;13.00;99.90;;;;;;5094419;28;20563;-65
2022/04/22 09:50:43;;;;;;;6.10;4.37;;;12.60;99.90;;;;;;5090508;28;20470;-70
2022/04/22 09:53:10;;;;;;;7.80;4.80;;;12.30;99.90;;;;;;5100462;28;20425;-69
2022/04/22 09:55:49;;;;;;;8.13;4.70;;;12.20;99.90;;;;;;5093466;28;20449;-69
2022/04/22 09:58:27;;;;;;;7.83;4.43;;;12.30;99.90;;;;;;5105811;28;20465;-62
2022/04/22 10:01:05;;;;;;;8.60;4.17;;;12.40;99.90;;;;;;5112456;28;20456;-68
2022/04/22 10:03:35;;;;;;;4.60;3.60;;;12.30;99.90;;;;;;5099603;28;20445;-62
2022/04/22 10:06:01;;;;;;;11.40;4.70;;;12.40;99.90;;;;;;5095237;28;20449;-62
2022/04/22 10:08:31;;;;;;;6.23;3.97;;;12.40;99.90;;;;;;5095888;28;20545;-65
2022/04/22 10:11:01;;;;;;;7.53;4.63;;;12.60;99.90;;;;;;5099961;28;20489;-62
2022/04/22 10:13:48;;;;;;;4.97;4.27;;;12.60;99.90;;;;;;5095945;28;20692;-68
2022/04/22 10:16:14;;;;;;;9.50;5.50;;;12.70;99.90;;;;;;5095594;28;20398;-69
2022/04/22 10:18:43;;;;;;;8.00;4.67;;;12.70;99.90;;;;;;5100179;28;20489;-68
2022/04/22 10:21:09;;;;;;;6.63;4.47;;;12.80;99.90;;;;;;5116689;28;20403;-66
2022/04/22 10:23:36;;;;;;;6.00;4.70;;;13.00;99.90;;;;;;5106987;28;20927;-68
2022/04/22 10:26:02;;;;;;;11.20;5.30;;;12.90;99.90;;;;;;5098716;28;20422;-71
2022/04/22 10:28:30;;;;;;;6.43;4.03;;;12.60;99.90;;;;;;5096117;28;20439;-71
2022/04/22 10:31:00;;;;;;;9.00;4.90;;;12.70;99.90;;;;;;5103491;28;20466;-67
2022/04/22 10:33:27;;;;;;;9.67;4.87;;;12.90;99.90;;;;;;5096662;28;20787;-68
2022/04/22 10:36:02;;;;;;;4.87;4.00;;;12.70;99.90;;;;;;5114917;28;20882;-68
2022/04/22 10:38:38;;;;;;;6.97;4.67;;;12.80;99.90;;;;;;5096780;28;20441;-70
2022/04/22 10:41:16;;;;;;;10.40;4.80;;;12.80;99.90;;;;;;5113963;28;20373;-68
2022/04/22 10:43:42;;;;;;;7.73;5.10;;;12.80;99.90;;;;;;5099885;28;20425;-68
2022/04/22 10:49:13;;;;;;;4.97;4.13;;;12.80;99.90;;;;;;5099081;28;20461;-64
2022/04/22 10:52:00;;;;;;;11.00;4.80;;;12.80;99.90;;;;;;5114659;28;20560;-63
2022/04/22 10:54:52;;;;;;;6.63;4.47;;;13.00;99.90;;;;;;5102639;28;20772;-68
2022/04/22 10:57:27;;;;;;;7.47;4.43;;;12.90;99.90;;;;;;5084310;28;20427;-66
2022/04/22 11:00:08;;;;;;;4.90;3.77;;;13.00;99.90;;;;;;5098224;28;20508;-63
2022/04/22 11:02:43;;;;;;;5.80;4.93;;;13.20;99.90;;;;;;5114043;28;20427;-67
2022/04/22 11:08:06;;;;;;;8.87;5.47;;;13.50;99.90;;;;;;5094999;28;20358;-70
2022/04/22 11:10:46;;;;;;;9.07;5.87;;;13.20;99.90;;;;;;5102144;28;20532;-65
2022/04/22 11:13:40;;;;;;;6.37;5.37;;;12.90;99.90;;;;;;5095029;28;20422;-65
2022/04/22 11:16:26;;;;;;;6.33;4.57;;;12.70;99.90;;;;;;5104913;28;20404;-66
2022/04/22 11:19:19;;;;;;;11.67;5.23;;;12.70;99.90;;;;;;5094580;28;20436;-66
2022/04/22 11:21:52;;;;;;;14.23;6.53;;;13.30;99.90;;;;;;5102430;28;20455;-65
2022/04/22 11:24:28;;;;;;;9.30;4.30;;;14.10;99.90;;;;;;5095926;28;20378;-62
2022/04/22 11:27:11;;;;;;;15.20;5.10;;;15.00;99.90;;;;;;5101431;28;20741;-67
2022/04/22 11:29:38;;;;;;;9.50;4.93;;;16.00;99.90;;;;;;5096349;28;20922;-68
2022/04/22 11:32:21;;;;;;;11.53;4.93;;;16.70;99.90;;;;;;5112182;28;20531;-67
2022/04/22 11:35:16;;;;;;;7.70;4.97;;;17.20;99.90;;;;;;5096706;28;20474;-68
2022/04/22 11:37:43;;;;;;;11.30;4.60;;;17.40;99.90;;;;;;5098376;28;20793;-68
2022/04/22 11:40:09;;;;;;;8.50;5.17;;;16.50;99.90;;;;;;5094622;28;20949;-66
2022/04/22 11:42:43;;;;;;;5.23;4.20;;;15.70;99.90;;;;;;5093960;28;20495;-67
2022/04/22 11:45:14;;;;;;;10.90;5.10;;;15.20;99.90;;;;;;5099177;28;20418;-65
2022/04/22 11:47:41;;;;;;;8.53;5.20;;;14.90;99.90;;;;;;5100334;28;20534;-66
2022/04/22 11:50:08;;;;;;;10.60;5.93;;;14.70;99.90;;;;;;5100130;28;20785;-65
2022/04/22 11:52:33;;;;;;;10.53;5.30;;;14.90;99.90;;;;;;5104512;28;20471;-64
2022/04/22 11:55:01;;;;;;;7.30;4.97;;;15.90;99.90;;;;;;5109849;28;20917;-63
2022/04/22 11:57:27;;;;;;;14.07;5.00;;;17.30;99.90;;;;;;5114956;28;20231;-62
2022/04/22 12:05:35;;;;;;;8.27;4.40;;;18.90;99.90;;;;;;5114764;28;20464;-64
2022/04/22 12:08:01;;;;;;;7.80;4.80;;;18.40;99.90;;;;;;5114755;28;20399;-67
2022/04/22 12:10:28;;;;;;;5.47;4.37;;;18.10;99.90;;;;;;5114118;28;20434;-64
2022/04/22 12:12:56;;;;;;;8.50;3.70;;;18.00;99.90;;;;;;5114699;28;20415;-61
2022/04/22 12:15:22;;;;;;;10.10;4.60;;;18.70;99.90;;;;;;5113336;28;20414;-66
2022/04/22 12:17:48;;;;;;;4.70;3.60;;;19.50;99.90;;;;;;5114357;28;20399;-62
2022/04/22 12:20:17;;;;;;;7.63;4.90;;;19.60;99.90;;;;;;5112327;28;20504;-65
2022/04/22 12:22:42;;;;;;;6.13;3.83;;;19.20;99.90;;;;;;5114501;28;20212;-68
2022/04/22 12:25:10;;;;;;;6.33;4.00;;;18.10;99.90;;;;;;5114406;28;20403;-66
2022/04/22 12:27:37;;;;;;;6.90;4.63;;;18.30;99.90;;;;;;5114546;28;20623;-64
2022/04/22 12:30:05;;;;;;;8.67;4.57;;;18.20;99.90;;;;;;5113690;28;20403;-68
2022/04/22 12:32:31;;;;;;;12.60;4.47;;;17.20;99.90;;;;;;5112934;28;20797;-64
2022/04/22 12:35:17;;;;;;;6.83;4.50;;;16.60;99.90;;;;;;5114405;28;20410;-68
2022/04/22 12:37:51;;;;;;;5.10;4.40;;;17.00;99.90;;;;;;5113312;28;20165;-62
2022/04/22 12:40:21;;;;;;;7.60;5.13;;;17.50;99.90;;;;;;5112003;28;20945;-67
2022/04/22 12:42:47;;;;;;;9.37;4.50;;;17.90;99.90;;;;;;5114033;28;20502;-67
2022/04/22 12:53:50;;;;;;;7.60;5.20;;;17.80;99.90;;;;;;5114130;28;20442;-68
2022/04/22 12:56:16;;;;;;;10.33;4.90;;;17.60;99.90;;;;;;5113871;28;20490;-64
2022/04/22 12:58:52;;;;;;;12.60;5.50;;;17.70;99.90;;;;;;5112402;28;21004;-66
2022/04/22 13:01:19;;;;;;;13.43;5.37;;;18.00;99.90;;;;;;5113652;28;20176;-67
2022/04/22 13:03:45;;;;;;;12.50;5.50;;;17.70;99.90;;;;;;5113716;28;20478;-62
2022/04/22 13:06:12;;;;;;;5.90;4.70;;;17.90;99.90;;;;;;5113413;28;20449;-62
2022/04/22 13:08:37;;;;;;;9.13;4.67;;;18.60;99.90;;;;;;5112870;28;20637;-63
2022/04/22 13:11:04;;;;;;;11.60;6.17;;;18.50;99.90;;;;;;5113553;28;20493;-66
2022/04/22 13:13:30;;;;;;;7.83;4.70;;;18.50;99.90;;;;;;5113497;28;20715;-63
2022/04/22 13:15:56;;;;;;;7.70;4.27;;;18.50;99.90;;;;;;5112756;28;20415;-64
2022/04/22 13:18:21;;;;;;;7.90;5.57;;;18.10;99.90;;;;;;5111933;28;20201;-65
2022/04/22 13:20:47;;;;;;;7.80;5.27;;;18.10;99.90;;;;;;5113030;28;20223;-63
2022/04/22 13:23:13;;;;;;;11.00;5.20;;;17.70;99.90;;;;;;5113266;28;20188;-65
2022/04/22 13:25:39;;;;;;;7.50;5.80;;;18.00;99.90;;;;;;5113448;28;20402;-65
2022/04/22 13:28:05;;;;;;;7.67;5.00;;;18.20;99.90;;;;;;5113246;28;20191;-65
2022/04/22 13:30:31;;;;;;;7.30;5.30;;;17.80;99.90;;;;;;5112554;28;20394;-67
2022/04/22 13:32:56;;;;;;;10.67;4.90;;;17.10;99.90;;;;;;5111822;28;20554;-63
2022/04/22 13:35:23;;;;;;;8.80;5.07;;;17.10;99.90;;;;;;5111608;28;20172;-65
2022/04/22 13:37:49;;;;;;;10.20;5.63;;;17.70;99.90;;;;;;5113318;28;20531;-63
2022/04/22 13:40:16;;;;;;;8.70;5.07;;;18.50;99.90;;;;;;5112505;28;20450;-67
2022/04/22 13:42:41;;;;;;;8.80;5.70;;;19.30;99.90;;;;;;5113029;28;20547;-67
2022/04/22 13:53:19;;;;;;;5.90;4.10;;;21.20;99.90;;;;;;5116650;28;20417;-67
2022/04/22 13:55:45;;;;;;;11.27;5.20;;;21.10;99.90;;;;;;5117393;28;20917;-64
2022/04/22 13:58:11;;;;;;;9.60;5.57;;;21.50;99.90;;;;;;5117347;28;20179;-68
2022/04/22 14:00:37;;;;;;;9.60;6.47;;;21.80;99.90;;;;;;5116404;28;20187;-71
2022/04/22 14:03:03;;;;;;;7.03;4.40;;;22.40;99.90;;;;;;5117162;28;20418;-68
2022/04/22 14:05:29;;;;;;;6.17;4.10;;;22.20;99.90;;;;;;5117003;28;20203;-71
2022/04/22 14:07:55;;;;;;;7.50;4.80;;;21.50;99.90;;;;;;5116023;28;20904;-71
2022/04/22 14:10:20;;;;;;;6.63;4.40;;;21.30;99.90;;;;;;5115979;28;20175;-66
2022/04/22 14:12:46;;;;;;;8.87;5.37;;;20.50;99.90;;;;;;5116967;28;20232;-72
2022/04/22 14:15:12;;;;;;;7.63;4.03;;;20.80;99.90;;;;;;5115677;28;20619;-66
2022/04/22 14:17:38;;;;;;;9.80;4.67;;;21.20;99.90;;;;;;5116849;28;20180;-66
2022/04/22 14:20:05;;;;;;;8.80;4.87;;;21.10;99.90;;;;;;5114705;28;20200;-71
2022/04/22 14:22:30;;;;;;;13.40;4.80;;;20.90;99.90;;;;;;5116687;28;20838;-69